Time;durP1;ratioP1;P1;durP2;ratioP2;P2;SDS_P1;SDS_P2;PMS_P1;PMS_P2;Temp;Humidity;BMP_temperature;BMP_pressure;BME280_temperature;BME280_humidity;BME280_pressure;Samples;Min_cycle;Max_cycle;Signal;HPM_P1;HPM_P2
2024/01/25 00:02:03;;;;;;;33.47;5.10;;;8.50;99.90;;;;;;4965802;28;20038;-81
2024/01/25 00:04:28;;;;;;;33.65;5.75;;;8.60;99.90;;;;;;4962751;28;20130;-81
2024/01/25 00:06:57;;;;;;;46.95;5.93;;;8.50;99.90;;;;;;4964457;28;20542;-81
2024/01/25 00:09:22;;;;;;;27.77;4.45;;;8.50;99.90;;;;;;4967366;28;20034;-81
2024/01/25 00:11:48;;;;;;;48.50;8.55;;;8.50;99.90;;;;;;4979963;28;20031;-81
2024/01/25 00:14:13;;;;;;;44.88;6.22;;;8.50;99.90;;;;;;4966093;28;20022;-81
2024/01/25 00:16:42;;;;;;;35.95;5.82;;;8.60;99.90;;;;;;4974293;28;20023;-81
2024/01/25 00:19:08;;;;;;;16.30;3.17;;;8.60;99.90;;;;;;4951311;28;20117;-81
2024/01/25 00:21:33;;;;;;;34.40;5.35;;;8.60;99.90;;;;;;4975016;28;20049;-81
2024/01/25 00:23:59;;;;;;;39.85;5.63;;;8.50;99.90;;;;;;4962088;28;20054;-81
2024/01/25 00:26:27;;;;;;;38.13;5.60;;;8.50;99.90;;;;;;4973470;28;20490;-81
2024/01/25 00:28:53;;;;;;;26.20;4.93;;;8.50;99.90;;;;;;4966701;28;20046;-81
2024/01/25 00:31:18;;;;;;;41.80;5.97;;;8.40;99.90;;;;;;4965837;28;20486;-80
2024/01/25 00:33:44;;;;;;;41.60;8.23;;;8.50;99.90;;;;;;4965298;28;20545;-80
2024/01/25 00:36:10;;;;;;;35.33;6.05;;;8.50;99.90;;;;;;4950610;28;20023;-81
2024/01/25 00:38:37;;;;;;;45.92;5.85;;;8.50;99.90;;;;;;4949513;28;20117;-81
2024/01/25 00:41:03;;;;;;;41.50;6.68;;;8.50;99.90;;;;;;4971767;28;20041;-80
2024/01/25 00:43:28;;;;;;;43.83;5.55;;;8.50;99.90;;;;;;4965725;28;20026;-81
2024/01/25 00:45:54;;;;;;;30.55;5.07;;;8.50;99.90;;;;;;4945147;28;20118;-80
2024/01/25 00:48:20;;;;;;;23.77;5.22;;;8.50;99.90;;;;;;4976863;28;20083;-81
2024/01/25 00:50:45;;;;;;;31.73;5.50;;;8.50;99.90;;;;;;4953406;28;20039;-81
2024/01/25 00:53:11;;;;;;;31.10;4.65;;;8.50;99.90;;;;;;4965064;28;20039;-81
2024/01/25 00:55:37;;;;;;;35.97;6.03;;;8.40;99.90;;;;;;4964541;28;20038;-81
2024/01/25 00:58:03;;;;;;;12.40;3.63;;;8.40;99.90;;;;;;4980064;28;20056;-81
2024/01/25 01:00:29;;;;;;;29.30;4.32;;;8.40;99.90;;;;;;4978729;28;20051;-80
2024/01/25 01:02:54;;;;;;;20.20;2.72;;;8.40;99.90;;;;;;4960674;28;20046;-81
2024/01/25 01:05:20;;;;;;;37.13;5.60;;;8.40;99.90;;;;;;4977449;28;20026;-81
2024/01/25 01:07:46;;;;;;;35.03;4.95;;;8.30;99.90;;;;;;4982324;28;20034;-81
2024/01/25 01:10:13;;;;;;;24.85;3.63;;;8.20;99.90;;;;;;4962731;28;20046;-80
2024/01/25 01:12:39;;;;;;;35.83;6.55;;;8.30;99.90;;;;;;4965139;28;20048;-81
2024/01/25 01:15:05;;;;;;;31.48;4.32;;;8.20;99.90;;;;;;4963407;28;20034;-81
2024/01/25 01:17:30;;;;;;;28.20;5.95;;;8.20;99.90;;;;;;4959673;28;20040;-81
2024/01/25 01:19:56;;;;;;;24.40;3.95;;;8.10;99.90;;;;;;4963667;28;20046;-81
2024/01/25 01:22:22;;;;;;;26.27;5.22;;;8.10;99.90;;;;;;4977313;28;20038;-81
2024/01/25 01:24:47;;;;;;;42.10;6.60;;;8.00;99.90;;;;;;4968302;28;20045;-81
2024/01/25 01:27:13;;;;;;;31.20;4.93;;;7.90;99.90;;;;;;4950620;28;20113;-80
2024/01/25 01:29:38;;;;;;;29.77;5.10;;;8.00;99.90;;;;;;4966441;28;20038;-80
2024/01/25 01:32:04;;;;;;;32.95;4.78;;;7.90;99.90;;;;;;4967372;28;20053;-80
2024/01/25 01:34:29;;;;;;;35.53;5.70;;;7.90;99.90;;;;;;4979202;28;20479;-80
2024/01/25 01:36:55;;;;;;;47.63;9.80;;;7.90;99.90;;;;;;4981532;28;20030;-80
2024/01/25 01:39:21;;;;;;;37.05;5.78;;;7.90;99.90;;;;;;4965480;28;20041;-81
2024/01/25 01:41:49;;;;;;;32.75;4.80;;;7.80;99.90;;;;;;4965234;28;20041;-80
2024/01/25 01:44:15;;;;;;;26.80;4.05;;;7.70;99.90;;;;;;4966954;28;20026;-81
2024/01/25 01:46:41;;;;;;;39.10;5.97;;;7.70;99.90;;;;;;4980521;28;20121;-80
2024/01/25 01:49:08;;;;;;;33.15;5.85;;;7.70;99.90;;;;;;4950493;28;20060;-80
2024/01/25 01:51:34;;;;;;;31.65;6.28;;;7.50;99.90;;;;;;4965828;28;20030;-80
2024/01/25 01:54:03;;;;;;;37.00;5.25;;;7.60;99.90;;;;;;4951458;28;20050;-80
2024/01/25 01:56:29;;;;;;;35.80;5.78;;;7.70;99.90;;;;;;4963353;28;20037;-80
2024/01/25 01:58:58;;;;;;;48.63;6.32;;;7.60;99.90;;;;;;4980139;28;20030;-80
2024/01/25 02:01:27;;;;;;;26.90;4.93;;;7.70;99.90;;;;;;4952741;28;20486;-80
2024/01/25 02:03:53;;;;;;;32.10;5.22;;;7.70;99.90;;;;;;4951248;28;20135;-80
2024/01/25 02:06:19;;;;;;;35.38;6.05;;;7.50;99.90;;;;;;4963535;28;20121;-80
2024/01/25 02:08:45;;;;;;;25.25;6.13;;;7.60;99.90;;;;;;4963786;28;20034;-80
2024/01/25 02:11:12;;;;;;;35.35;5.07;;;7.60;99.90;;;;;;4952313;28;20031;-80
2024/01/25 02:13:37;;;;;;;29.75;5.40;;;7.60;99.90;;;;;;4964311;28;20038;-80
2024/01/25 02:16:04;;;;;;;16.98;3.85;;;7.70;99.90;;;;;;4957492;28;20033;-80
2024/01/25 02:18:30;;;;;;;31.33;5.05;;;7.80;99.90;;;;;;4965380;28;20027;-79
2024/01/25 02:20:55;;;;;;;21.15;4.55;;;7.70;99.90;;;;;;4939292;28;20033;-79
2024/01/25 02:23:22;;;;;;;33.97;6.13;;;7.70;99.90;;;;;;4979188;28;20035;-79
2024/01/25 02:25:47;;;;;;;39.90;6.65;;;7.80;99.90;;;;;;4964791;28;20042;-79
2024/01/25 02:28:13;;;;;;;32.58;6.45;;;7.80;99.90;;;;;;4975545;28;20372;-79
2024/01/25 02:30:38;;;;;;;41.60;5.40;;;7.70;99.90;;;;;;4974230;28;20038;-79
2024/01/25 02:33:04;;;;;;;28.55;4.25;;;7.70;99.90;;;;;;4946747;28;20384;-80
2024/01/25 02:35:29;;;;;;;37.58;4.82;;;7.80;99.90;;;;;;4942908;28;20521;-80
2024/01/25 02:37:55;;;;;;;32.78;4.50;;;7.80;99.90;;;;;;4949245;28;20120;-80
2024/01/25 02:40:21;;;;;;;21.00;3.60;;;7.80;99.90;;;;;;4976071;28;20352;-80
2024/01/25 02:42:46;;;;;;;40.38;5.60;;;7.80;99.90;;;;;;4963296;28;20130;-80
2024/01/25 02:45:12;;;;;;;26.42;4.25;;;7.80;99.90;;;;;;4965330;28;20784;-80
2024/01/25 02:47:37;;;;;;;33.22;6.53;;;7.70;99.90;;;;;;4948618;28;20065;-81
2024/01/25 02:50:03;;;;;;;24.83;4.60;;;7.70;99.90;;;;;;4961795;28;20081;-81
2024/01/25 02:52:28;;;;;;;25.65;4.53;;;7.60;99.90;;;;;;4950354;28;20053;-80
2024/01/25 02:54:54;;;;;;;30.80;4.43;;;7.60;99.90;;;;;;4949507;28;20502;-80
2024/01/25 02:57:19;;;;;;;26.30;3.70;;;7.60;99.90;;;;;;4962858;28;20058;-80
2024/01/25 02:59:46;;;;;;;25.92;4.40;;;7.50;99.90;;;;;;4964409;28;20046;-80
2024/01/25 03:02:12;;;;;;;24.77;3.70;;;7.50;99.90;;;;;;4963644;28;20105;-80
2024/01/25 03:04:37;;;;;;;24.10;4.60;;;7.50;99.90;;;;;;4963406;28;20125;-80
2024/01/25 03:07:03;;;;;;;25.95;4.30;;;7.50;99.90;;;;;;4979157;28;20923;-80
2024/01/25 03:09:28;;;;;;;32.95;5.20;;;7.40;99.90;;;;;;4949759;28;20468;-80
2024/01/25 03:11:54;;;;;;;33.90;5.57;;;7.40;99.90;;;;;;4965809;28;20037;-80
2024/01/25 03:14:19;;;;;;;26.85;3.75;;;7.30;99.90;;;;;;4949322;28;20031;-81
2024/01/25 03:16:45;;;;;;;31.02;5.68;;;7.30;99.90;;;;;;4965547;28;20073;-80
2024/01/25 03:19:10;;;;;;;27.15;3.80;;;7.20;99.90;;;;;;4979456;28;20019;-80
2024/01/25 03:21:36;;;;;;;27.30;4.28;;;7.20;99.90;;;;;;4948157;28;20046;-81
2024/01/25 03:24:02;;;;;;;34.20;4.95;;;7.20;99.90;;;;;;4963960;28;20465;-80
2024/01/25 03:26:28;;;;;;;31.83;5.95;;;7.10;99.90;;;;;;4975150;28;20049;-80
2024/01/25 03:28:53;;;;;;;31.00;5.43;;;7.10;99.90;;;;;;4973515;28;20046;-80
2024/01/25 03:31:19;;;;;;;27.73;4.82;;;7.00;99.90;;;;;;4971131;28;20522;-79
2024/01/25 03:33:44;;;;;;;33.42;4.43;;;7.00;99.90;;;;;;4935702;28;20031;-80
2024/01/25 03:36:13;;;;;;;23.40;4.07;;;7.00;99.90;;;;;;4969938;28;20030;-80
2024/01/25 03:38:39;;;;;;;32.38;4.85;;;7.00;99.90;;;;;;4978223;28;20038;-80
2024/01/25 03:41:04;;;;;;;31.02;4.80;;;6.90;99.90;;;;;;4979879;28;20039;-80
2024/01/25 03:43:30;;;;;;;25.40;4.07;;;6.80;99.90;;;;;;4964558;28;20027;-81
2024/01/25 03:45:55;;;;;;;30.23;5.95;;;6.70;99.90;;;;;;4963743;28;20030;-81
2024/01/25 03:48:21;;;;;;;29.83;4.45;;;6.80;99.90;;;;;;4945968;28;20598;-81
2024/01/25 03:50:47;;;;;;;27.92;3.75;;;6.80;99.90;;;;;;4964261;28;20687;-81
2024/01/25 03:53:13;;;;;;;29.13;4.68;;;6.80;99.90;;;;;;4966128;28;20026;-80
2024/01/25 03:55:38;;;;;;;34.17;5.65;;;6.70;99.90;;;;;;4963144;28;20057;-81
2024/01/25 03:58:04;;;;;;;23.35;4.30;;;6.60;99.90;;;;;;4948467;28;20038;-80
2024/01/25 04:00:32;;;;;;;24.42;4.10;;;6.60;99.90;;;;;;4954213;28;20495;-81
2024/01/25 04:02:58;;;;;;;25.35;4.07;;;6.60;99.90;;;;;;4948106;28;20042;-80
2024/01/25 04:05:23;;;;;;;27.20;4.97;;;6.60;99.90;;;;;;4948408;28;20537;-80
2024/01/25 04:07:49;;;;;;;25.70;3.42;;;6.60;99.90;;;;;;4946601;28;20035;-79
2024/01/25 04:10:15;;;;;;;24.48;4.00;;;6.60;99.90;;;;;;4948856;28;20107;-79
2024/01/25 04:12:40;;;;;;;31.17;5.35;;;6.50;99.90;;;;;;4944974;28;20372;-79
2024/01/25 04:15:06;;;;;;;17.27;3.45;;;6.50;99.90;;;;;;4977987;28;20038;-78
2024/01/25 04:17:32;;;;;;;24.60;4.15;;;6.40;99.90;;;;;;4943836;28;20039;-79
2024/01/25 04:19:57;;;;;;;33.63;4.15;;;6.30;99.90;;;;;;4948764;28;20062;-78
2024/01/25 04:22:24;;;;;;;30.10;3.75;;;6.40;99.90;;;;;;4946978;28;20066;-79
2024/01/25 04:24:50;;;;;;;27.73;3.97;;;6.40;99.90;;;;;;4963191;28;20034;-80
2024/01/25 04:27:16;;;;;;;24.08;4.38;;;6.30;99.90;;;;;;4981577;28;20035;-80
2024/01/25 04:29:42;;;;;;;31.13;4.03;;;6.20;99.90;;;;;;4927079;28;20521;-80
2024/01/25 04:32:08;;;;;;;26.67;4.82;;;6.20;99.90;;;;;;4965580;28;20561;-80
2024/01/25 04:34:36;;;;;;;29.20;5.15;;;6.30;99.90;;;;;;4966917;28;20030;-80
2024/01/25 04:37:02;;;;;;;29.20;6.32;;;6.30;99.90;;;;;;4965688;28;20495;-80
2024/01/25 04:39:27;;;;;;;19.67;3.30;;;6.30;99.90;;;;;;4983501;28;20030;-80
2024/01/25 04:41:53;;;;;;;22.30;4.00;;;6.20;99.90;;;;;;4967245;28;20096;-80
2024/01/25 04:44:18;;;;;;;39.33;4.47;;;6.10;99.90;;;;;;4966400;28;20026;-80
2024/01/25 04:46:44;;;;;;;19.95;3.33;;;6.10;99.90;;;;;;4948301;28;20028;-80
2024/01/25 04:49:09;;;;;;;34.05;4.82;;;6.10;99.90;;;;;;4968063;28;20062;-80
2024/01/25 04:51:35;;;;;;;23.92;3.53;;;6.10;99.90;;;;;;4983174;28;20033;-80
2024/01/25 04:54:01;;;;;;;28.45;5.07;;;6.10;99.90;;;;;;4976063;28;20022;-81
2024/01/25 04:56:26;;;;;;;28.63;4.53;;;6.10;99.90;;;;;;4962951;28;20038;-81
2024/01/25 04:58:52;;;;;;;27.58;4.53;;;6.00;99.90;;;;;;4963003;28;20410;-81
2024/01/25 05:01:18;;;;;;;25.98;3.80;;;6.00;99.90;;;;;;4980787;28;20069;-82
2024/01/25 05:03:44;;;;;;;25.88;4.80;;;6.00;99.90;;;;;;4967961;28;20035;-81
2024/01/25 05:06:10;;;;;;;29.08;5.03;;;5.90;99.90;;;;;;4949856;28;20539;-82
2024/01/25 05:08:35;;;;;;;35.33;5.10;;;5.90;99.90;;;;;;4948503;28;20109;-82
2024/01/25 05:11:01;;;;;;;25.83;5.20;;;5.80;99.90;;;;;;4977130;28;20081;-82
2024/01/25 05:13:26;;;;;;;29.73;5.25;;;5.80;99.90;;;;;;4965111;28;20035;-82
2024/01/25 05:15:52;;;;;;;26.38;4.40;;;5.80;99.90;;;;;;4963940;28;20438;-82
2024/01/25 05:18:18;;;;;;;27.27;3.83;;;5.80;99.90;;;;;;4965937;28;20121;-82
2024/01/25 05:20:43;;;;;;;22.15;4.25;;;5.80;99.90;;;;;;4948554;28;20030;-82
2024/01/25 05:23:09;;;;;;;30.00;5.70;;;5.90;99.90;;;;;;4945711;28;20042;-82
2024/01/25 05:25:35;;;;;;;24.98;5.03;;;5.80;99.90;;;;;;4962953;28;20038;-81
2024/01/25 05:28:00;;;;;;;30.08;5.18;;;5.70;99.90;;;;;;4977965;28;20129;-82
2024/01/25 05:30:52;;;;;;;42.15;6.00;;;5.60;99.90;;;;;;4953231;28;20034;-80
2024/01/25 05:33:18;;;;;;;22.50;3.90;;;5.60;99.90;;;;;;4949368;28;20042;-82
2024/01/25 05:35:43;;;;;;;31.23;4.88;;;5.70;99.90;;;;;;4938628;28;20032;-82
2024/01/25 05:38:09;;;;;;;18.48;3.90;;;5.60;99.90;;;;;;4949199;28;20118;-82
2024/01/25 05:40:34;;;;;;;32.55;4.88;;;5.60;99.90;;;;;;4946529;28;20086;-82
2024/01/25 05:43:00;;;;;;;35.00;5.80;;;5.60;99.90;;;;;;4941214;28;20042;-82
2024/01/25 05:45:26;;;;;;;23.33;3.45;;;5.50;99.90;;;;;;4949757;28;20030;-82
2024/01/25 05:47:51;;;;;;;27.38;4.47;;;5.50;99.90;;;;;;4983060;28;20046;-82
2024/01/25 05:50:17;;;;;;;14.20;3.25;;;5.40;99.90;;;;;;4960514;28;20045;-82
2024/01/25 05:52:43;;;;;;;26.30;5.00;;;5.50;99.90;;;;;;4969845;28;20030;-81
2024/01/25 05:55:08;;;;;;;26.45;4.45;;;5.50;99.90;;;;;;4965982;28;20117;-81
2024/01/25 05:57:35;;;;;;;26.05;5.10;;;5.40;99.90;;;;;;4948682;28;20034;-81
2024/01/25 06:00:01;;;;;;;41.67;5.38;;;5.50;99.90;;;;;;4944341;28;20039;-81
2024/01/25 06:02:27;;;;;;;30.10;6.00;;;5.50;99.90;;;;;;4966323;28;20109;-80
2024/01/25 06:04:53;;;;;;;33.42;6.63;;;5.60;99.90;;;;;;4949977;28;20042;-82
2024/01/25 06:07:20;;;;;;;23.48;4.35;;;5.50;99.90;;;;;;4941884;28;20038;-83
2024/01/25 06:09:45;;;;;;;24.38;4.07;;;5.40;99.90;;;;;;4951930;28;20060;-83
2024/01/25 06:12:11;;;;;;;24.75;4.63;;;5.30;99.90;;;;;;4978336;28;20072;-83
2024/01/25 06:14:43;;;;;;;23.42;4.13;;;5.30;99.90;;;;;;4966769;28;20034;-83
2024/01/25 06:17:09;;;;;;;38.83;6.45;;;5.30;99.90;;;;;;4967998;28;20639;-83
2024/01/25 06:19:35;;;;;;;27.95;5.82;;;5.30;99.90;;;;;;4949550;28;20026;-83
2024/01/25 06:22:00;;;;;;;32.40;5.45;;;5.30;99.90;;;;;;4978982;28;20026;-83
2024/01/25 06:24:26;;;;;;;31.15;4.47;;;5.30;99.90;;;;;;4952162;28;20038;-82
2024/01/25 06:26:54;;;;;;;23.80;4.60;;;5.20;99.90;;;;;;4947473;28;20624;-83
2024/01/25 06:29:20;;;;;;;37.58;6.10;;;5.20;99.90;;;;;;4965652;28;20101;-83
2024/01/25 06:31:46;;;;;;;27.58;4.85;;;5.30;99.90;;;;;;4978128;28;20047;-83
2024/01/25 06:34:11;;;;;;;20.00;4.50;;;5.30;99.90;;;;;;4932147;28;20039;-83
2024/01/25 06:36:37;;;;;;;43.30;6.60;;;5.20;99.90;;;;;;4977391;28;20034;-84
2024/01/25 06:39:04;;;;;;;28.55;6.25;;;5.30;99.90;;;;;;4969755;28;20038;-82
2024/01/25 06:41:30;;;;;;;27.42;5.35;;;5.20;99.90;;;;;;4954550;28;20045;-83
2024/01/25 06:43:55;;;;;;;27.98;5.65;;;5.10;99.90;;;;;;4951252;28;20030;-82
2024/01/25 06:46:21;;;;;;;25.75;5.07;;;5.20;99.90;;;;;;4952272;28;20034;-83
2024/01/25 06:48:46;;;;;;;20.08;5.35;;;5.10;99.90;;;;;;4965786;28;20519;-83
2024/01/25 06:51:13;;;;;;;25.50;4.70;;;5.00;99.90;;;;;;4948015;28;20049;-84
2024/01/25 06:53:41;;;;;;;30.05;5.25;;;5.00;99.90;;;;;;4980321;28;20140;-83
2024/01/25 06:56:07;;;;;;;30.17;5.00;;;5.10;99.90;;;;;;4961960;28;20031;-80
2024/01/25 06:58:32;;;;;;;26.13;5.47;;;5.00;99.90;;;;;;4967165;28;20088;-80
2024/01/25 07:00:59;;;;;;;38.28;6.97;;;5.10;99.90;;;;;;4978640;28;20044;-80
2024/01/25 07:03:25;;;;;;;48.88;6.82;;;5.00;99.90;;;;;;4946872;28;20142;-84
2024/01/25 07:05:51;;;;;;;53.30;8.60;;;5.10;99.90;;;;;;4960247;28;20402;-84
2024/01/25 07:08:16;;;;;;;42.78;7.95;;;4.90;99.90;;;;;;4961077;28;20085;-84
2024/01/25 07:10:42;;;;;;;34.20;6.60;;;5.00;99.90;;;;;;4977059;28;20053;-83
2024/01/25 07:13:08;;;;;;;36.35;5.75;;;5.10;99.90;;;;;;4954131;28;20454;-82
2024/01/25 07:15:46;;;;;;;38.85;8.23;;;5.00;99.90;;;;;;4948083;28;20061;-82
2024/01/25 07:18:11;;;;;;;32.75;5.95;;;5.00;99.90;;;;;;4932718;28;20067;-83
2024/01/25 07:20:37;;;;;;;35.80;5.78;;;5.00;99.90;;;;;;4968577;28;20081;-83
2024/01/25 07:23:03;;;;;;;37.25;6.03;;;5.00;99.90;;;;;;4966158;28;20042;-83
2024/01/25 07:25:30;;;;;;;25.50;3.97;;;5.00;99.90;;;;;;4944808;28;20051;-83
2024/01/25 07:27:56;;;;;;;18.00;2.13;;;5.00;99.90;;;;;;4973053;28;20042;-82
2024/01/25 07:30:22;;;;;;;34.83;6.00;;;5.00;99.90;;;;;;4964296;28;20063;-83
2024/01/25 07:32:49;;;;;;;35.65;6.03;;;4.90;99.90;;;;;;4967672;28;20042;-83
2024/01/25 07:35:16;;;;;;;44.70;7.40;;;5.00;99.90;;;;;;4953340;28;20169;-83
2024/01/25 07:37:41;;;;;;;32.15;5.97;;;4.80;99.90;;;;;;4953601;28;20033;-82
2024/01/25 07:40:08;;;;;;;33.22;5.63;;;4.90;99.90;;;;;;4954497;28;20034;-83
2024/01/25 07:42:34;;;;;;;31.98;6.57;;;4.90;99.90;;;;;;4968811;28;20128;-82
2024/01/25 07:45:00;;;;;;;22.95;3.90;;;4.80;99.90;;;;;;4967056;28;20125;-82
2024/01/25 07:47:27;;;;;;;36.45;7.15;;;4.90;99.90;;;;;;4968455;28;20050;-82
2024/01/25 07:49:53;;;;;;;27.05;5.57;;;4.90;99.90;;;;;;4954620;28;20174;-82
2024/01/25 07:52:28;;;;;;;37.05;8.05;;;4.80;99.90;;;;;;4963831;28;20067;-82
2024/01/25 07:54:53;;;;;;;31.60;6.78;;;5.00;99.90;;;;;;4980164;28;20031;-81
2024/01/25 07:57:19;;;;;;;33.20;7.05;;;5.20;99.90;;;;;;4967230;28;20700;-82
2024/01/25 07:59:45;;;;;;;40.42;7.90;;;5.20;99.90;;;;;;4969505;28;20189;-82
2024/01/25 08:02:10;;;;;;;34.60;5.78;;;5.30;99.90;;;;;;4965897;28;20093;-83
2024/01/25 08:04:36;;;;;;;29.48;6.88;;;5.20;99.90;;;;;;4949558;28;20027;-82
2024/01/25 08:07:03;;;;;;;31.42;5.75;;;5.10;99.90;;;;;;4936893;28;20038;-83
2024/01/25 08:09:28;;;;;;;40.35;6.57;;;4.80;99.90;;;;;;4969717;28;20033;-83
2024/01/25 08:11:54;;;;;;;26.00;5.25;;;5.10;99.90;;;;;;4958225;28;20030;-81
2024/01/25 08:14:20;;;;;;;33.83;5.78;;;5.10;99.90;;;;;;4984419;28;20446;-80
2024/01/25 08:16:45;;;;;;;30.42;6.18;;;5.10;99.90;;;;;;4950632;28;20030;-81
2024/01/25 08:19:11;;;;;;;46.88;7.35;;;5.20;99.90;;;;;;4956251;28;20057;-81
2024/01/25 08:21:37;;;;;;;24.45;4.90;;;5.20;99.90;;;;;;4966295;28;20037;-80
2024/01/25 08:24:03;;;;;;;25.15;4.90;;;5.10;99.90;;;;;;4969506;28;20030;-82
2024/01/25 08:26:28;;;;;;;27.30;5.13;;;5.20;99.90;;;;;;4950297;28;20110;-82
2024/01/25 08:28:54;;;;;;;24.95;6.25;;;5.30;99.90;;;;;;4973060;28;20034;-82
2024/01/25 08:31:19;;;;;;;20.23;5.75;;;5.20;99.90;;;;;;4956748;28;20086;-82
2024/01/25 08:33:47;;;;;;;33.13;6.90;;;5.30;99.90;;;;;;4969403;28;20093;-79
2024/01/25 08:36:13;;;;;;;35.50;8.27;;;5.30;99.90;;;;;;4946763;28;20581;-81
2024/01/25 08:38:39;;;;;;;35.30;7.07;;;5.40;99.90;;;;;;4964911;28;20454;-79
2024/01/25 08:41:04;;;;;;;42.03;9.05;;;5.50;99.90;;;;;;4961092;28;20149;-80
2024/01/25 08:43:32;;;;;;;44.50;10.38;;;5.50;99.90;;;;;;4947068;28;20487;-80
2024/01/25 08:45:58;;;;;;;60.78;14.20;;;5.50;99.90;;;;;;4965618;28;20062;-79
2024/01/25 08:48:24;;;;;;;23.05;7.53;;;5.40;99.90;;;;;;4966981;28;20054;-80
2024/01/25 08:50:53;;;;;;;45.50;11.45;;;5.40;99.90;;;;;;4964968;28;20467;-79
2024/01/25 08:53:21;;;;;;;33.72;6.18;;;5.40;99.90;;;;;;4965811;28;20109;-80
2024/01/25 08:55:46;;;;;;;46.40;10.32;;;5.50;99.90;;;;;;4974798;28;20507;-79
2024/01/25 08:58:12;;;;;;;39.17;11.88;;;5.50;99.90;;;;;;4943896;28;20041;-79
2024/01/25 09:00:37;;;;;;;85.80;15.10;;;5.60;99.90;;;;;;4949383;28;20035;-79
2024/01/25 09:03:03;;;;;;;51.63;14.43;;;5.60;99.90;;;;;;4978531;28;20038;-79
2024/01/25 09:05:29;;;;;;;26.83;8.30;;;5.60;99.90;;;;;;4959538;28;20037;-80
2024/01/25 09:07:54;;;;;;;53.95;15.30;;;5.60;99.90;;;;;;4965207;28;20100;-79
2024/01/25 09:10:20;;;;;;;40.90;11.90;;;5.70;99.90;;;;;;4976233;28;20039;-79
2024/01/25 09:12:46;;;;;;;19.02;6.63;;;5.70;99.90;;;;;;4963899;28;20529;-80
2024/01/25 09:15:11;;;;;;;43.00;14.25;;;5.80;99.90;;;;;;4956469;28;20104;-79
2024/01/25 09:17:37;;;;;;;55.45;17.58;;;5.80;99.90;;;;;;4960953;28;20042;-79
2024/01/25 09:20:03;;;;;;;54.95;15.70;;;5.80;99.90;;;;;;4944939;28;20027;-79
2024/01/25 09:22:28;;;;;;;59.25;15.98;;;5.90;99.90;;;;;;4951499;28;20034;-79
2024/01/25 09:24:54;;;;;;;44.28;13.98;;;6.00;99.90;;;;;;4970402;28;20092;-79
2024/01/25 09:27:19;;;;;;;36.58;13.20;;;6.10;99.90;;;;;;4975293;28;20038;-80
2024/01/25 09:29:45;;;;;;;42.67;13.77;;;6.20;99.90;;;;;;4949306;28;20381;-79
2024/01/25 09:32:10;;;;;;;45.85;13.93;;;6.10;99.90;;;;;;4948090;28;20431;-79
2024/01/25 09:34:36;;;;;;;43.83;13.80;;;6.20;99.90;;;;;;4981020;28;20415;-79
2024/01/25 09:37:02;;;;;;;45.63;15.15;;;6.30;99.90;;;;;;4950473;28;20030;-80
2024/01/25 09:39:28;;;;;;;58.65;17.17;;;6.30;99.90;;;;;;4983385;28;20402;-80
2024/01/25 09:41:53;;;;;;;41.95;14.75;;;6.40;99.90;;;;;;4968225;28;20027;-80
2024/01/25 09:44:19;;;;;;;47.53;14.77;;;6.30;99.90;;;;;;4964175;28;20099;-79
2024/01/25 09:46:48;;;;;;;51.05;16.85;;;6.40;99.90;;;;;;4979254;28;20035;-79
2024/01/25 09:49:14;;;;;;;29.88;9.40;;;6.40;99.90;;;;;;4951888;28;20037;-80
2024/01/25 09:51:42;;;;;;;41.20;11.82;;;6.40;99.90;;;;;;4968355;28;20398;-80
2024/01/25 09:54:08;;;;;;;44.28;16.48;;;6.50;99.90;;;;;;4976390;28;20030;-80
2024/01/25 09:56:33;;;;;;;47.85;17.02;;;6.70;99.90;;;;;;4962415;28;20084;-80
2024/01/25 09:59:00;;;;;;;52.60;16.33;;;6.70;99.90;;;;;;4981289;28;20054;-79
2024/01/25 10:01:27;;;;;;;54.95;15.93;;;6.70;99.90;;;;;;4980712;28;20487;-79
2024/01/25 10:03:52;;;;;;;51.75;17.88;;;6.80;99.90;;;;;;4949955;28;20037;-80
2024/01/25 10:06:18;;;;;;;50.70;17.67;;;6.90;99.90;;;;;;4950475;28;20038;-80
2024/01/25 10:08:44;;;;;;;48.47;14.18;;;6.90;99.90;;;;;;4956315;28;20034;-80
2024/01/25 10:11:12;;;;;;;61.63;18.73;;;6.90;99.90;;;;;;4969142;28;20073;-80
2024/01/25 10:13:45;;;;;;;53.00;16.20;;;7.00;99.90;;;;;;4951656;28;20038;-79
2024/01/25 10:16:27;;;;;;;48.80;15.32;;;7.10;99.90;;;;;;4977056;28;20038;-80
2024/01/25 10:18:53;;;;;;;47.22;16.08;;;7.10;99.90;;;;;;4966576;28;20390;-79
2024/01/25 10:21:19;;;;;;;48.58;13.60;;;7.20;99.90;;;;;;4933217;28;20040;-79
2024/01/25 10:23:47;;;;;;;43.58;15.30;;;7.30;99.90;;;;;;4975077;28;20039;-79
2024/01/25 10:26:13;;;;;;;50.80;14.60;;;7.30;99.90;;;;;;4951378;28;20038;-80
2024/01/25 10:28:39;;;;;;;43.10;13.10;;;7.40;99.90;;;;;;4963536;28;20050;-79
2024/01/25 10:31:06;;;;;;;56.65;14.77;;;7.40;99.90;;;;;;4966892;28;20090;-79
2024/01/25 10:33:32;;;;;;;43.90;13.48;;;7.50;99.90;;;;;;4947507;28;20034;-78
2024/01/25 10:36:04;;;;;;;41.85;14.05;;;7.50;99.90;;;;;;4946787;28;20041;-78
2024/01/25 10:38:31;;;;;;;37.05;14.18;;;7.40;99.90;;;;;;4966729;28;20084;-79
2024/01/25 10:40:59;;;;;;;51.58;16.05;;;7.50;99.90;;;;;;4951152;28;20060;-78
2024/01/25 10:43:25;;;;;;;16.40;6.97;;;7.50;99.90;;;;;;4963971;28;20026;-79
2024/01/25 10:45:55;;;;;;;41.58;12.48;;;7.50;99.90;;;;;;4977857;28;20177;-79
2024/01/25 10:48:21;;;;;;;48.10;13.20;;;7.70;99.90;;;;;;4965291;28;20092;-78
2024/01/25 10:50:46;;;;;;;41.55;11.48;;;7.70;99.90;;;;;;4964963;28;20046;-79
2024/01/25 10:53:15;;;;;;;44.28;10.68;;;7.70;99.90;;;;;;4963811;28;20046;-80
2024/01/25 10:55:41;;;;;;;21.10;6.70;;;7.90;99.90;;;;;;4946233;28;20064;-79
2024/01/25 10:58:11;;;;;;;29.75;10.55;;;8.00;99.90;;;;;;4963047;28;20035;-79
2024/01/25 11:00:36;;;;;;;48.63;12.05;;;8.10;99.90;;;;;;4971161;28;20045;-79
2024/01/25 11:03:04;;;;;;;37.67;11.88;;;8.20;99.90;;;;;;4948740;28;20031;-79
2024/01/25 11:05:29;;;;;;;19.30;5.38;;;8.30;99.90;;;;;;4979534;28;20391;-79
2024/01/25 11:07:55;;;;;;;42.33;10.50;;;8.40;99.90;;;;;;4950933;28;20041;-79
2024/01/25 11:10:22;;;;;;;36.17;9.40;;;8.50;99.90;;;;;;4965675;28;20041;-79
2024/01/25 11:13:00;;;;;;;33.85;10.13;;;8.50;99.90;;;;;;4951885;28;20398;-79
2024/01/25 11:15:36;;;;;;;33.78;8.98;;;8.50;99.90;;;;;;4962475;28;20060;-80
2024/01/25 11:18:02;;;;;;;35.50;9.60;;;8.70;99.90;;;;;;4951112;28;20379;-79
2024/01/25 11:20:28;;;;;;;34.20;9.23;;;8.80;99.90;;;;;;4963647;28;20034;-79
2024/01/25 11:23:14;;;;;;;36.45;8.95;;;9.10;99.90;;;;;;4981900;28;20034;-79
2024/01/25 11:25:40;;;;;;;28.40;7.03;;;9.10;99.90;;;;;;4960536;28;20100;-79
2024/01/25 11:28:07;;;;;;;38.00;9.63;;;9.20;99.90;;;;;;4950302;28;20030;-79
2024/01/25 11:30:33;;;;;;;32.03;8.02;;;9.40;99.90;;;;;;4961320;28;20035;-79
2024/01/25 11:32:59;;;;;;;42.92;9.45;;;9.40;99.90;;;;;;4936485;28;20101;-78
2024/01/25 11:35:25;;;;;;;37.47;8.68;;;9.60;99.90;;;;;;4940937;28;20031;-79
2024/01/25 11:37:53;;;;;;;24.38;6.60;;;9.70;99.90;;;;;;4947635;28;20445;-79
2024/01/25 11:40:19;;;;;;;26.73;7.55;;;10.00;99.90;;;;;;4980099;28;20046;-78
2024/01/25 11:42:47;;;;;;;33.75;7.93;;;9.90;99.90;;;;;;4952378;28;20018;-80
2024/01/25 11:45:13;;;;;;;41.17;8.88;;;10.10;99.90;;;;;;4957578;28;20042;-79
2024/01/25 11:47:39;;;;;;;29.98;6.28;;;10.30;99.90;;;;;;4961571;28;20026;-79
2024/01/25 11:50:09;;;;;;;23.77;5.93;;;10.00;99.90;;;;;;4952176;28;20034;-80
2024/01/25 11:52:35;;;;;;;27.42;5.60;;;10.20;99.90;;;;;;4981005;28;20034;-79
2024/01/25 11:55:06;;;;;;;32.42;7.68;;;10.40;99.90;;;;;;4967226;28;20439;-80
2024/01/25 11:57:36;;;;;;;28.70;7.18;;;10.40;99.90;;;;;;4965096;28;20027;-80
2024/01/25 12:00:02;;;;;;;16.73;4.28;;;10.80;99.90;;;;;;4963823;28;20113;-80
2024/01/25 12:02:28;;;;;;;22.10;5.40;;;10.50;99.90;;;;;;4967648;28;20060;-80
2024/01/25 12:04:56;;;;;;;30.77;7.07;;;10.50;99.90;;;;;;4951780;28;20406;-80
2024/01/25 12:07:21;;;;;;;24.63;6.57;;;10.50;99.90;;;;;;4950821;28;20546;-79
2024/01/25 12:10:01;;;;;;;19.80;4.60;;;10.60;99.90;;;;;;4979780;28;20146;-79
2024/01/25 12:12:27;;;;;;;27.40;6.18;;;10.40;99.90;;;;;;4963017;28;20058;-80
2024/01/25 12:14:57;;;;;;;30.08;5.95;;;10.40;99.90;;;;;;4951374;28;20394;-79
2024/01/25 12:17:23;;;;;;;33.22;6.57;;;10.40;99.90;;;;;;4955369;28;21571;-79
2024/01/25 12:19:48;;;;;;;49.45;10.70;;;10.50;99.90;;;;;;4953417;28;20034;-79
2024/01/25 12:22:20;;;;;;;27.08;4.90;;;10.60;99.90;;;;;;4957152;28;20039;-79
2024/01/25 12:24:48;;;;;;;26.92;6.90;;;10.50;99.90;;;;;;4949976;28;20077;-79
2024/01/25 12:27:14;;;;;;;25.20;5.22;;;10.50;99.90;;;;;;4965627;28;20050;-79
2024/01/25 12:29:40;;;;;;;34.03;7.63;;;10.50;99.90;;;;;;4966545;28;20181;-79
2024/01/25 12:32:06;;;;;;;27.08;6.90;;;10.40;99.90;;;;;;4980048;28;20026;-79
2024/01/25 12:34:32;;;;;;;33.33;8.18;;;10.40;99.90;;;;;;4942754;28;20057;-80
2024/01/25 12:36:59;;;;;;;31.05;7.97;;;10.40;99.90;;;;;;4954755;28;20034;-79
2024/01/25 12:39:24;;;;;;;34.35;6.47;;;10.50;99.90;;;;;;4969162;28;20030;-80